3GV weather

East Kansas City Airport
Grain Valley, Missouri, United States

Public forecast

Using degrees Fahrenheit for public forecast. Weather courtesy of forecast.io.

METAR (pilot weather report)

Closest report is Lee's Summit Municipal Airport, 8.1 nm (15.0 km) WSW. Retrieved 2019/08/20 14:53 UTC (23 minutes ago):

KLXT 201453Z AUTO 23011KT 10SM CLR 29/23 A2998 RMK AO2 SLP139 T02940228 56001

TAF (pilot weather forecast)

Closest forecast is Charles B. Wheeler Downtown Airport, 18.8 nm (34.9 km) WNW. Retrieved 2019/08/20 12:22 UTC (3 hours ago):

TAF KMKC 201120Z 2012/2112 21010KT P6SM SKC FM210200 18005KT P6SM SCT250